Time;durP1;ratioP1;P1;durP2;ratioP2;P2;SDS_P1;SDS_P2;PMS_P1;PMS_P2;Temp;Humidity;BMP_temperature;BMP_pressure;BME280_temperature;BME280_humidity;BME280_pressure;Samples;Min_cycle;Max_cycle;Signal;HPM_P1;HPM_P2
2022/10/16 00:00:41;;;;;;;8.05;2.08;;;;;;;;;;5135268;27;20039;-76
2022/10/16 00:03:08;;;;;;;11.05;2.33;;;;;;;;;;5103775;28;20043;-76
2022/10/16 00:05:38;;;;;;;8.48;2.20;;;;;;;;;;5128686;27;20084;-77
2022/10/16 00:08:04;;;;;;;8.13;2.00;;;;;;;;;;5125179;27;20042;-77
2022/10/16 00:10:30;;;;;;;6.90;1.98;;;;;;;;;;5134648;27;20476;-67
2022/10/16 00:12:56;;;;;;;6.18;1.50;;;;;;;;;;5134599;27;20369;-67
2022/10/16 00:15:22;;;;;;;8.45;1.90;;;;;;;;;;5116317;27;20399;-67
2022/10/16 00:17:48;;;;;;;6.20;1.90;;;;;;;;;;5134388;27;20074;-67
2022/10/16 00:20:15;;;;;;;8.48;2.03;;;;;;;;;;5116079;27;20038;-67
2022/10/16 00:22:41;;;;;;;9.75;2.13;;;;;;;;;;5099040;27;20031;-67
2022/10/16 00:25:07;;;;;;;5.88;2.08;;;;;;;;;;5134345;27;20099;-67
2022/10/16 00:27:33;;;;;;;7.32;1.98;;;;;;;;;;5134338;27;20042;-67
2022/10/16 00:29:59;;;;;;;9.45;2.40;;;;;;;;;;5133917;27;20031;-67
2022/10/16 00:32:25;;;;;;;7.45;1.90;;;;;;;;;;5134665;27;20432;-76
2022/10/16 00:34:54;;;;;;;5.65;1.70;;;;;;;;;;5098390;27;20073;-76
2022/10/16 00:37:20;;;;;;;6.78;1.75;;;;;;;;;;5134652;27;20039;-77
2022/10/16 00:39:46;;;;;;;7.10;1.95;;;;;;;;;;5082224;27;20461;-77
2022/10/16 00:42:16;;;;;;;6.18;2.13;;;;;;;;;;5115509;27;20045;-76
2022/10/16 00:44:42;;;;;;;5.78;1.83;;;;;;;;;;5134390;27;20053;-67
2022/10/16 00:47:10;;;;;;;7.65;1.90;;;;;;;;;;5133667;27;20488;-67
2022/10/16 00:49:36;;;;;;;5.57;1.90;;;;;;;;;;5115840;27;20491;-68
2022/10/16 00:52:03;;;;;;;5.85;1.80;;;;;;;;;;5133241;27;20039;-67
2022/10/16 00:54:31;;;;;;;10.15;1.98;;;;;;;;;;5133892;27;20046;-68
2022/10/16 00:56:59;;;;;;;7.55;2.00;;;;;;;;;;5133192;27;20050;-68
2022/10/16 00:59:27;;;;;;;11.82;2.20;;;;;;;;;;5133523;27;20488;-68
2022/10/16 01:01:53;;;;;;;7.22;2.08;;;;;;;;;;5133512;27;20091;-67
2022/10/16 01:04:20;;;;;;;5.82;1.92;;;;;;;;;;5133678;27;20110;-67
2022/10/16 01:06:58;;;;;;;6.13;2.08;;;;;;;;;;5133683;27;20483;-67
2022/10/16 01:09:36;;;;;;;5.78;2.00;;;;;;;;;;5133935;27;20117;-77
2022/10/16 01:12:16;;;;;;;5.18;2.22;;;;;;;;;;5133121;27;20047;-76
2022/10/16 01:14:53;;;;;;;5.78;2.30;;;;;;;;;;5115447;27;20130;-77
2022/10/16 01:17:22;;;;;;;6.55;2.20;;;;;;;;;;5114907;28;20368;-77
2022/10/16 01:19:54;;;;;;;5.93;2.15;;;;;;;;;;5133829;27;20172;-77
2022/10/16 01:22:23;;;;;;;7.03;2.40;;;;;;;;;;5114986;27;20467;-77
2022/10/16 01:24:50;;;;;;;5.63;2.35;;;;;;;;;;5133541;27;20119;-77
2022/10/16 01:27:21;;;;;;;7.85;2.20;;;;;;;;;;5089218;27;20046;-77
2022/10/16 01:29:47;;;;;;;8.55;2.40;;;;;;;;;;5120155;27;20036;-67
2022/10/16 01:32:28;;;;;;;6.22;2.10;;;;;;;;;;5131713;27;20035;-67
2022/10/16 01:35:12;;;;;;;5.15;1.80;;;;;;;;;;5133188;27;20088;-68
2022/10/16 01:37:45;;;;;;;7.50;2.22;;;;;;;;;;5114667;27;20046;-67
2022/10/16 01:40:12;;;;;;;4.40;1.83;;;;;;;;;;5132968;27;20417;-76
2022/10/16 01:42:58;;;;;;;5.65;1.85;;;;;;;;;;5114758;27;20035;-77
2022/10/16 01:45:25;;;;;;;6.10;1.85;;;;;;;;;;5092770;28;20038;-68
2022/10/16 01:47:52;;;;;;;6.43;1.75;;;;;;;;;;5123437;28;20039;-68
2022/10/16 01:50:19;;;;;;;5.82;2.38;;;;;;;;;;5132583;28;20043;-68
2022/10/16 01:52:47;;;;;;;6.72;1.80;;;;;;;;;;5133283;28;20073;-77
2022/10/16 01:55:14;;;;;;;7.50;2.00;;;;;;;;;;5132547;28;20150;-77
2022/10/16 01:57:43;;;;;;;5.25;2.00;;;;;;;;;;5133441;28;20400;-77
2022/10/16 02:00:11;;;;;;;8.07;2.20;;;;;;;;;;5114627;28;20476;-77
2022/10/16 02:02:38;;;;;;;5.93;1.77;;;;;;;;;;5130250;28;20035;-68
2022/10/16 02:05:13;;;;;;;11.13;2.25;;;;;;;;;;5131925;28;20073;-67
2022/10/16 02:07:41;;;;;;;6.28;1.85;;;;;;;;;;5097260;28;20100;-67
2022/10/16 02:10:07;;;;;;;5.90;2.22;;;;;;;;;;5115724;27;20091;-67
2022/10/16 02:12:34;;;;;;;7.38;2.47;;;;;;;;;;5118866;27;20479;-67
2022/10/16 02:15:00;;;;;;;6.20;2.17;;;;;;;;;;5136870;27;20074;-67
2022/10/16 02:17:26;;;;;;;5.30;2.08;;;;;;;;;;5136862;27;20088;-68
2022/10/16 02:19:54;;;;;;;6.18;2.10;;;;;;;;;;5136803;27;20463;-77
2022/10/16 02:22:39;;;;;;;5.25;2.33;;;;;;;;;;5118447;27;20524;-77
2022/10/16 02:25:15;;;;;;;8.35;2.00;;;;;;;;;;5124728;27;20503;-77
2022/10/16 02:27:41;;;;;;;10.60;2.50;;;;;;;;;;5118173;27;20043;-77
2022/10/16 02:30:23;;;;;;;7.38;2.25;;;;;;;;;;5136522;27;20387;-77
2022/10/16 02:32:49;;;;;;;6.68;2.20;;;;;;;;;;5104211;27;20117;-78
2022/10/16 02:35:17;;;;;;;4.95;1.73;;;;;;;;;;5136506;27;20476;-77
2022/10/16 02:37:44;;;;;;;6.47;1.90;;;;;;;;;;5118384;27;20380;-78
2022/10/16 02:40:11;;;;;;;4.25;2.20;;;;;;;;;;5136380;27;20031;-76
2022/10/16 02:42:38;;;;;;;5.35;2.20;;;;;;;;;;5136535;27;20092;-77
2022/10/16 02:45:05;;;;;;;6.55;2.30;;;;;;;;;;5100831;27;20042;-77
2022/10/16 02:47:31;;;;;;;3.85;1.85;;;;;;;;;;5101474;27;20452;-77
2022/10/16 02:49:57;;;;;;;5.13;2.10;;;;;;;;;;5117983;27;20108;-68
2022/10/16 02:52:23;;;;;;;5.68;2.05;;;;;;;;;;5117579;27;20035;-67
2022/10/16 02:54:49;;;;;;;4.15;1.77;;;;;;;;;;5135966;27;20130;-68
2022/10/16 02:57:15;;;;;;;7.07;1.80;;;;;;;;;;5135790;27;20042;-67
2022/10/16 02:59:41;;;;;;;6.32;1.73;;;;;;;;;;5135987;27;20057;-76
2022/10/16 03:02:08;;;;;;;4.00;1.60;;;;;;;;;;5131199;27;20074;-76
2022/10/16 03:04:34;;;;;;;4.15;1.80;;;;;;;;;;5126664;27;20070;-77
2022/10/16 03:07:00;;;;;;;3.55;1.70;;;;;;;;;;5135873;27;20039;-76
2022/10/16 03:09:26;;;;;;;6.30;1.90;;;;;;;;;;5135697;27;20061;-77
2022/10/16 03:11:52;;;;;;;5.78;2.20;;;;;;;;;;5136218;27;20050;-77
2022/10/16 03:14:18;;;;;;;4.97;2.00;;;;;;;;;;5135755;27;20039;-76
2022/10/16 03:16:44;;;;;;;4.15;2.05;;;;;;;;;;5135995;27;20043;-76
2022/10/16 03:19:10;;;;;;;6.25;2.05;;;;;;;;;;5117147;27;20556;-76
2022/10/16 03:21:36;;;;;;;4.72;1.85;;;;;;;;;;5135577;27;20502;-77
2022/10/16 03:24:02;;;;;;;4.15;1.83;;;;;;;;;;5135406;27;20066;-76
2022/10/16 03:26:28;;;;;;;4.68;2.13;;;;;;;;;;5135613;27;20114;-76
2022/10/16 03:28:54;;;;;;;6.20;2.22;;;;;;;;;;5135383;27;20039;-76
2022/10/16 03:31:20;;;;;;;5.78;2.30;;;;;;;;;;5135292;27;20042;-76
2022/10/16 03:33:46;;;;;;;4.53;1.95;;;;;;;;;;5135948;27;20039;-76
2022/10/16 03:36:12;;;;;;;5.45;2.20;;;;;;;;;;5135159;27;20047;-77
2022/10/16 03:38:38;;;;;;;4.38;2.17;;;;;;;;;;5117376;27;20042;-76
2022/10/16 03:41:05;;;;;;;4.82;2.28;;;;;;;;;;5135507;27;20039;-77
2022/10/16 03:43:31;;;;;;;4.90;2.13;;;;;;;;;;5135183;27;20043;-76
2022/10/16 03:45:57;;;;;;;5.60;2.03;;;;;;;;;;5135130;27;20095;-76
2022/10/16 03:48:23;;;;;;;4.30;2.00;;;;;;;;;;5135119;27;20035;-77
2022/10/16 03:50:50;;;;;;;5.00;2.40;;;;;;;;;;5135492;27;20396;-76
2022/10/16 03:53:16;;;;;;;3.92;2.20;;;;;;;;;;5116542;27;20050;-76
2022/10/16 03:55:43;;;;;;;7.45;2.25;;;;;;;;;;5099273;27;20078;-77
2022/10/16 03:58:09;;;;;;;5.63;2.30;;;;;;;;;;5135518;27;20043;-76
2022/10/16 04:00:35;;;;;;;6.18;2.47;;;;;;;;;;5130256;27;20043;-76
2022/10/16 04:03:01;;;;;;;6.82;2.45;;;;;;;;;;5132791;27;20043;-76
2022/10/16 04:05:27;;;;;;;6.43;2.53;;;;;;;;;;5134547;27;20060;-76
2022/10/16 04:07:54;;;;;;;5.88;2.30;;;;;;;;;;5135097;27;20050;-77
2022/10/16 04:10:20;;;;;;;5.00;2.45;;;;;;;;;;5116342;27;20118;-77
2022/10/16 04:12:47;;;;;;;3.30;2.20;;;;;;;;;;5117046;27;20039;-76
2022/10/16 04:15:13;;;;;;;6.10;2.67;;;;;;;;;;5116891;27;20465;-77
2022/10/16 04:17:39;;;;;;;7.20;2.60;;;;;;;;;;5135010;27;20088;-77
2022/10/16 04:20:05;;;;;;;5.50;2.40;;;;;;;;;;5123135;27;20143;-76
2022/10/16 04:22:31;;;;;;;5.68;2.65;;;;;;;;;;5116703;27;20119;-76
2022/10/16 04:24:57;;;;;;;4.38;2.42;;;;;;;;;;5136810;27;20399;-77
2022/10/16 04:27:24;;;;;;;5.93;2.60;;;;;;;;;;5136198;27;20047;-77
2022/10/16 04:29:50;;;;;;;8.55;2.83;;;;;;;;;;5117891;27;20039;-77
2022/10/16 04:32:16;;;;;;;8.20;2.90;;;;;;;;;;5135694;27;20123;-76
2022/10/16 04:34:42;;;;;;;6.35;2.88;;;;;;;;;;5133338;27;20057;-76
2022/10/16 04:37:08;;;;;;;6.35;2.67;;;;;;;;;;5124153;27;20043;-77
2022/10/16 04:39:34;;;;;;;6.22;2.75;;;;;;;;;;5116199;27;20076;-77
2022/10/16 04:42:00;;;;;;;8.10;3.15;;;;;;;;;;5116311;27;20043;-77
2022/10/16 04:44:26;;;;;;;5.07;2.85;;;;;;;;;;5134336;27;20039;-77
2022/10/16 04:46:52;;;;;;;5.70;2.92;;;;;;;;;;5116042;27;20122;-76
2022/10/16 04:49:18;;;;;;;4.75;3.20;;;;;;;;;;5116296;27;20508;-67
2022/10/16 04:51:45;;;;;;;10.35;3.10;;;;;;;;;;5133666;27;20034;-67
2022/10/16 04:54:11;;;;;;;4.18;2.42;;;;;;;;;;5115534;27;20177;-67
2022/10/16 04:56:43;;;;;;;4.85;3.03;;;;;;;;;;5133025;27;20047;-67
2022/10/16 04:59:09;;;;;;;5.32;3.03;;;;;;;;;;5134516;27;20039;-68
2022/10/16 05:01:35;;;;;;;6.20;3.13;;;;;;;;;;5133419;27;20471;-67
2022/10/16 05:04:01;;;;;;;8.30;3.67;;;;;;;;;;5133771;27;20035;-67
2022/10/16 05:06:27;;;;;;;7.53;3.42;;;;;;;;;;5133636;27;20545;-67
2022/10/16 05:08:53;;;;;;;7.00;3.38;;;;;;;;;;5133745;27;20031;-76
2022/10/16 05:11:19;;;;;;;6.45;3.35;;;;;;;;;;5133809;27;20487;-76
2022/10/16 05:13:45;;;;;;;8.38;3.17;;;;;;;;;;5101378;27;20506;-76
2022/10/16 05:16:12;;;;;;;5.65;2.97;;;;;;;;;;5117721;27;20044;-77
2022/10/16 05:18:38;;;;;;;5.70;3.15;;;;;;;;;;5134316;27;20088;-76
2022/10/16 05:21:04;;;;;;;6.70;3.20;;;;;;;;;;5115755;27;20097;-76
2022/10/16 05:23:30;;;;;;;5.40;3.22;;;;;;;;;;5121381;27;20039;-76
2022/10/16 05:25:57;;;;;;;8.45;3.22;;;;;;;;;;5132163;27;20031;-76
2022/10/16 05:28:24;;;;;;;8.50;3.00;;;;;;;;;;5133586;27;20046;-76
2022/10/16 05:30:50;;;;;;;5.07;3.15;;;;;;;;;;5133087;27;20043;-67
2022/10/16 05:33:16;;;;;;;6.82;3.17;;;;;;;;;;5133530;27;20127;-67
2022/10/16 05:35:43;;;;;;;7.13;3.10;;;;;;;;;;5117645;27;20035;-67
2022/10/16 05:38:09;;;;;;;12.82;3.58;;;;;;;;;;5130490;27;20039;-68
2022/10/16 05:40:35;;;;;;;6.43;3.10;;;;;;;;;;5114797;27;20068;-67
2022/10/16 05:43:02;;;;;;;6.68;3.22;;;;;;;;;;5132793;27;20080;-68
2022/10/16 05:45:28;;;;;;;8.48;3.25;;;;;;;;;;5114250;27;20035;-67
2022/10/16 05:47:54;;;;;;;6.80;3.20;;;;;;;;;;5098981;28;20081;-76
2022/10/16 05:50:20;;;;;;;4.88;3.10;;;;;;;;;;5117627;28;20039;-76
2022/10/16 05:52:46;;;;;;;8.15;3.17;;;;;;;;;;5116335;28;20050;-77
2022/10/16 05:55:12;;;;;;;7.53;3.50;;;;;;;;;;5134446;28;20063;-76
2022/10/16 05:57:38;;;;;;;7.85;3.40;;;;;;;;;;5134739;28;20119;-77
2022/10/16 06:00:05;;;;;;;6.93;3.33;;;;;;;;;;5134162;28;20039;-76
2022/10/16 06:02:31;;;;;;;8.07;3.35;;;;;;;;;;5133029;28;20064;-76
2022/10/16 06:04:57;;;;;;;5.28;2.90;;;;;;;;;;5115097;28;20076;-76
2022/10/16 06:07:23;;;;;;;5.90;3.10;;;;;;;;;;5133491;28;20043;-77
2022/10/16 06:09:49;;;;;;;5.60;3.00;;;;;;;;;;5114782;28;20039;-67
2022/10/16 06:12:16;;;;;;;6.88;3.25;;;;;;;;;;5132798;28;20449;-67
2022/10/16 06:14:42;;;;;;;6.35;3.00;;;;;;;;;;5132589;28;20047;-67
2022/10/16 06:17:08;;;;;;;6.10;2.90;;;;;;;;;;5132801;28;20382;-67
2022/10/16 06:19:34;;;;;;;8.65;3.35;;;;;;;;;;5132893;28;20047;-67
2022/10/16 06:22:02;;;;;;;7.20;2.97;;;;;;;;;;5114501;28;20074;-67
2022/10/16 06:24:28;;;;;;;8.20;3.03;;;;;;;;;;5132916;28;20035;-67
2022/10/16 06:26:54;;;;;;;10.50;3.00;;;;;;;;;;5132336;28;20046;-67
2022/10/16 06:29:20;;;;;;;5.97;2.63;;;;;;;;;;5096580;28;20512;-67
2022/10/16 06:31:46;;;;;;;6.05;3.05;;;;;;;;;;5132549;28;20072;-67
2022/10/16 06:34:12;;;;;;;5.10;2.75;;;;;;;;;;5133043;28;20046;-67
2022/10/16 06:36:39;;;;;;;4.10;2.67;;;;;;;;;;5114096;28;20035;-76
2022/10/16 06:39:07;;;;;;;8.02;2.92;;;;;;;;;;5133127;28;20097;-76
2022/10/16 06:41:33;;;;;;;7.97;3.10;;;;;;;;;;5096995;28;20096;-76
2022/10/16 06:43:59;;;;;;;5.43;3.13;;;;;;;;;;5132960;28;20380;-76
2022/10/16 06:46:26;;;;;;;4.88;2.72;;;;;;;;;;5114484;28;20050;-77
2022/10/16 06:48:55;;;;;;;4.63;2.65;;;;;;;;;;5097181;28;20574;-76
2022/10/16 06:51:22;;;;;;;8.18;3.33;;;;;;;;;;5132998;28;20528;-78
2022/10/16 06:53:53;;;;;;;6.63;3.28;;;;;;;;;;5132492;28;20039;-77
2022/10/16 06:56:20;;;;;;;10.05;2.70;;;;;;;;;;5085913;28;20048;-77
2022/10/16 06:58:47;;;;;;;6.82;2.78;;;;;;;;;;5134605;27;20543;-77
2022/10/16 07:01:14;;;;;;;6.60;3.10;;;;;;;;;;5136452;27;20074;-77
2022/10/16 07:03:40;;;;;;;6.50;2.53;;;;;;;;;;5135840;27;20056;-77
2022/10/16 07:06:08;;;;;;;7.30;2.67;;;;;;;;;;5135840;27;20082;-77
2022/10/16 07:08:35;;;;;;;5.70;2.42;;;;;;;;;;5135833;27;20054;-77
2022/10/16 07:11:01;;;;;;;5.32;2.35;;;;;;;;;;5135903;27;20082;-77
2022/10/16 07:13:28;;;;;;;7.45;2.40;;;;;;;;;;5135762;27;20396;-76
2022/10/16 07:15:54;;;;;;;5.45;2.60;;;;;;;;;;5117618;27;20414;-77
2022/10/16 07:18:20;;;;;;;5.25;2.30;;;;;;;;;;5136224;27;20392;-76
2022/10/16 07:20:46;;;;;;;9.77;2.63;;;;;;;;;;5135711;27;20035;-75
2022/10/16 07:23:12;;;;;;;4.78;2.15;;;;;;;;;;5135700;27;20039;-75
2022/10/16 07:25:38;;;;;;;5.82;2.30;;;;;;;;;;5135590;27;20038;-75
2022/10/16 07:28:04;;;;;;;6.88;2.20;;;;;;;;;;5135498;27;20031;-75
2022/10/16 07:30:30;;;;;;;5.13;2.00;;;;;;;;;;5135478;27;20049;-75
2022/10/16 07:32:56;;;;;;;6.10;2.00;;;;;;;;;;5135398;27;20031;-75
2022/10/16 07:35:22;;;;;;;7.22;2.50;;;;;;;;;;5135627;27;20031;-75
2022/10/16 07:37:48;;;;;;;6.85;2.03;;;;;;;;;;5116670;27;20043;-75
2022/10/16 07:40:14;;;;;;;6.10;2.10;;;;;;;;;;5135552;27;20084;-75
2022/10/16 07:42:41;;;;;;;3.70;1.52;;;;;;;;;;5135708;27;20119;-75
2022/10/16 07:45:07;;;;;;;4.60;1.50;;;;;;;;;;5099546;27;20041;-75
2022/10/16 07:47:33;;;;;;;7.97;1.52;;;;;;;;;;5117202;27;20040;-75
2022/10/16 07:49:59;;;;;;;5.50;1.33;;;;;;;;;;5116331;27;20039;-75
2022/10/16 07:52:25;;;;;;;5.07;1.40;;;;;;;;;;5135490;27;20035;-75
2022/10/16 07:54:51;;;;;;;4.55;1.10;;;;;;;;;;5116334;27;20480;-66
2022/10/16 07:57:19;;;;;;;4.95;1.23;;;;;;;;;;5116710;27;20122;-66
2022/10/16 07:59:46;;;;;;;3.38;1.20;;;;;;;;;;5116271;27;20499;-66
2022/10/16 08:02:12;;;;;;;7.97;1.60;;;;;;;;;;5135059;27;20042;-67
2022/10/16 08:04:38;;;;;;;3.58;1.30;;;;;;;;;;5135026;27;20038;-68
2022/10/16 08:07:04;;;;;;;4.05;1.10;;;;;;;;;;5131137;27;20038;-67
2022/10/16 08:09:30;;;;;;;7.93;1.48;;;;;;;;;;5123747;27;20038;-67
2022/10/16 08:11:56;;;;;;;5.75;1.55;;;;;;;;;;5115837;27;20039;-67
2022/10/16 08:14:22;;;;;;;5.95;1.58;;;;;;;;;;5096108;28;20048;-68
2022/10/16 08:16:48;;;;;;;5.10;1.55;;;;;;;;;;5127653;27;20451;-68
2022/10/16 08:19:15;;;;;;;5.28;1.83;;;;;;;;;;5134525;27;20515;-67
2022/10/16 08:21:42;;;;;;;7.15;1.85;;;;;;;;;;5134889;27;20039;-67
2022/10/16 08:24:08;;;;;;;6.97;1.85;;;;;;;;;;5115584;27;20031;-67
2022/10/16 08:26:34;;;;;;;4.15;1.92;;;;;;;;;;5134533;27;20043;-67
2022/10/16 08:29:00;;;;;;;4.70;1.88;;;;;;;;;;5133822;27;20043;-68
2022/10/16 08:31:27;;;;;;;7.28;1.83;;;;;;;;;;5116093;27;20487;-67
2022/10/16 08:33:53;;;;;;;5.97;1.80;;;;;;;;;;5115557;27;20073;-68
2022/10/16 08:36:19;;;;;;;4.28;1.73;;;;;;;;;;5119579;27;20046;-68
2022/10/16 08:38:48;;;;;;;4.72;1.60;;;;;;;;;;5126158;27;20043;-68
2022/10/16 08:41:14;;;;;;;4.85;1.60;;;;;;;;;;5129115;27;20054;-77
2022/10/16 08:43:40;;;;;;;4.47;1.50;;;;;;;;;;5134597;27;20384;-77
2022/10/16 08:46:16;;;;;;;6.32;1.58;;;;;;;;;;5134221;27;20564;-78
2022/10/16 08:48:49;;;;;;;3.75;1.65;;;;;;;;;;5134463;27;20043;-76
2022/10/16 08:51:35;;;;;;;4.78;1.50;;;;;;;;;;5115543;27;20031;-67
2022/10/16 08:54:15;;;;;;;3.45;1.30;;;;;;;;;;5133394;27;20031;-77
2022/10/16 08:56:41;;;;;;;7.80;1.70;;;;;;;;;;5113601;27;20047;-67
2022/10/16 08:59:11;;;;;;;6.65;1.63;;;;;;;;;;5085710;27;20043;-67
2022/10/16 09:01:42;;;;;;;4.60;1.48;;;;;;;;;;5133708;27;20087;-68
2022/10/16 09:04:26;;;;;;;7.53;1.75;;;;;;;;;;5115036;27;20035;-68
2022/10/16 09:06:59;;;;;;;5.18;1.40;;;;;;;;;;5100667;27;20051;-68
2022/10/16 09:09:31;;;;;;;5.38;1.30;;;;;;;;;;5098459;27;20054;-68
2022/10/16 09:12:00;;;;;;;6.10;1.52;;;;;;;;;;5133553;27;20087;-67
2022/10/16 09:14:35;;;;;;;6.60;1.30;;;;;;;;;;5098490;27;20043;-77
2022/10/16 09:17:07;;;;;;;5.05;1.40;;;;;;;;;;5114880;27;20055;-77
2022/10/16 09:19:37;;;;;;;4.13;1.30;;;;;;;;;;5133173;27;20042;-67
2022/10/16 09:22:11;;;;;;;7.05;1.45;;;;;;;;;;5115335;27;20064;-77
2022/10/16 09:24:37;;;;;;;6.00;1.30;;;;;;;;;;5115157;27;20071;-77
2022/10/16 09:27:03;;;;;;;7.32;1.42;;;;;;;;;;5115021;27;20039;-78
2022/10/16 09:29:29;;;;;;;5.95;1.25;;;;;;;;;;5133673;27;20035;-77
2022/10/16 09:32:07;;;;;;;9.52;1.30;;;;;;;;;;5133371;27;20035;-78
2022/10/16 09:34:40;;;;;;;5.50;1.20;;;;;;;;;;5133422;27;20102;-78
2022/10/16 09:37:09;;;;;;;6.50;1.33;;;;;;;;;;5133102;27;20047;-78
2022/10/16 09:39:46;;;;;;;7.13;1.40;;;;;;;;;;5133193;27;20060;-68
2022/10/16 09:42:15;;;;;;;6.53;1.30;;;;;;;;;;5132915;27;20046;-68
2022/10/16 09:44:41;;;;;;;6.80;1.40;;;;;;;;;;5132948;27;20039;-67
2022/10/16 09:47:17;;;;;;;6.53;1.55;;;;;;;;;;5133036;27;20035;-67
2022/10/16 09:49:59;;;;;;;6.32;1.33;;;;;;;;;;5115108;28;20556;-77
2022/10/16 09:52:26;;;;;;;6.05;1.40;;;;;;;;;;5115079;28;20039;-77
2022/10/16 09:54:53;;;;;;;8.82;1.60;;;;;;;;;;5132865;28;20051;-77
2022/10/16 09:57:20;;;;;;;13.60;1.70;;;;;;;;;;5114756;28;20445;-77
2022/10/16 09:59:57;;;;;;;9.40;1.90;;;;;;;;;;5114859;28;20039;-78
2022/10/16 10:02:41;;;;;;;7.70;1.92;;;;;;;;;;5119229;28;20035;-77
2022/10/16 10:05:17;;;;;;;10.90;1.80;;;;;;;;;;5097627;28;20392;-78
2022/10/16 10:07:47;;;;;;;7.50;1.67;;;;;;;;;;5098304;28;20534;-77
2022/10/16 10:10:27;;;;;;;10.85;1.70;;;;;;;;;;5132587;28;20081;-77
2022/10/16 10:12:53;;;;;;;10.82;1.67;;;;;;;;;;5115075;28;20035;-78
2022/10/16 10:15:21;;;;;;;6.50;1.40;;;;;;;;;;5096006;28;20068;-77
2022/10/16 10:17:51;;;;;;;9.23;1.92;;;;;;;;;;5120405;28;20105;-77
2022/10/16 10:20:31;;;;;;;5.88;1.20;;;;;;;;;;5133088;28;20062;-76
2022/10/16 10:22:57;;;;;;;8.77;2.00;;;;;;;;;;5120902;28;20087;-78
2022/10/16 10:25:27;;;;;;;12.32;1.98;;;;;;;;;;5114171;28;20039;-67
2022/10/16 10:28:08;;;;;;;7.45;1.63;;;;;;;;;;5111227;28;20115;-67
2022/10/16 10:30:34;;;;;;;9.05;1.80;;;;;;;;;;5119057;27;20062;-77
2022/10/16 10:33:04;;;;;;;9.75;1.77;;;;;;;;;;5136900;27;20066;-78
2022/10/16 10:35:39;;;;;;;10.85;2.33;;;;;;;;;;5137009;27;20038;-78
2022/10/16 10:38:16;;;;;;;8.57;1.70;;;;;;;;;;5118012;27;20043;-77
2022/10/16 10:40:56;;;;;;;10.45;1.70;;;;;;;;;;5118342;27;20042;-77
2022/10/16 10:43:30;;;;;;;10.30;2.13;;;;;;;;;;5097628;28;20043;-77
2022/10/16 10:46:01;;;;;;;8.00;1.77;;;;;;;;;;5109601;27;20496;-77
2022/10/16 10:48:43;;;;;;;9.63;1.88;;;;;;;;;;5136329;27;20285;-77
2022/10/16 10:51:13;;;;;;;11.30;2.28;;;;;;;;;;5136653;27;20488;-78
2022/10/16 10:53:56;;;;;;;11.35;1.80;;;;;;;;;;5101834;27;20392;-77
2022/10/16 10:56:28;;;;;;;8.65;1.63;;;;;;;;;;5117658;27;20103;-78
2022/10/16 10:59:02;;;;;;;9.07;1.60;;;;;;;;;;5087376;27;20039;-77
2022/10/16 11:01:36;;;;;;;11.15;1.83;;;;;;;;;;5136263;27;20046;-78
2022/10/16 11:04:11;;;;;;;6.72;1.73;;;;;;;;;;5094706;28;20040;-79
2022/10/16 11:06:44;;;;;;;7.35;1.55;;;;;;;;;;5111736;27;20488;-79
2022/10/16 11:09:13;;;;;;;6.75;1.73;;;;;;;;;;5136301;27;20058;-78
2022/10/16 11:11:42;;;;;;;9.38;1.90;;;;;;;;;;5122744;27;20081;-78
2022/10/16 11:14:34;;;;;;;9.05;1.50;;;;;;;;;;5135293;27;20088;-78
2022/10/16 11:17:06;;;;;;;8.75;1.70;;;;;;;;;;5131306;27;20109;-79
2022/10/16 11:19:37;;;;;;;10.43;1.70;;;;;;;;;;5135527;27;20064;-78
2022/10/16 11:22:12;;;;;;;8.23;1.85;;;;;;;;;;5117674;27;20118;-78
2022/10/16 11:24:38;;;;;;;;;;;;;;;;;;5136266;27;20035;-79
2022/10/16 11:27:07;;;;;;;10.07;1.90;;;;;;;;;;5117306;27;19916;-78
2022/10/16 11:29:45;;;;;;;8.30;1.58;;;;;;;;;;5135389;27;20053;-79
2022/10/16 11:32:19;;;;;;;9.50;1.83;;;;;;;;;;5135275;27;20035;-77
2022/10/16 11:34:48;;;;;;;9.73;1.70;;;;;;;;;;5117364;27;20034;-78
2022/10/16 11:37:17;;;;;;;12.95;2.17;;;;;;;;;;5099659;27;20081;-78
2022/10/16 11:39:44;;;;;;;10.93;1.73;;;;;;;;;;5114836;27;20047;-78
2022/10/16 11:42:20;;;;;;;9.25;1.90;;;;;;;;;;5123278;27;20133;-78
2022/10/16 11:45:03;;;;;;;9.02;1.90;;;;;;;;;;5102420;27;20071;-79
2022/10/16 11:47:38;;;;;;;9.45;2.00;;;;;;;;;;5116960;27;20479;-79
2022/10/16 11:50:04;;;;;;;8.73;1.90;;;;;;;;;;5131996;27;20036;-79
2022/10/16 11:52:56;;;;;;;7.82;1.63;;;;;;;;;;5105600;27;20480;-79
2022/10/16 11:55:37;;;;;;;8.52;2.00;;;;;;;;;;5077666;27;20047;-77
2022/10/16 11:58:23;;;;;;;7.88;1.95;;;;;;;;;;5103309;28;20052;-78
2022/10/16 12:00:59;;;;;;;7.70;1.52;;;;;;;;;;5083702;27;20048;-80
2022/10/16 12:03:25;;;;;;;8.95;1.77;;;;;;;;;;5116431;27;20039;-78
2022/10/16 12:05:51;;;;;;;7.80;1.50;;;;;;;;;;5117209;27;20042;-78
2022/10/16 12:08:17;;;;;;;11.65;2.10;;;;;;;;;;5135021;27;20045;-78
2022/10/16 12:10:46;;;;;;;7.82;1.67;;;;;;;;;;5116472;27;20049;-77
2022/10/16 12:13:30;;;;;;;6.82;1.67;;;;;;;;;;5085412;27;20491;-80
2022/10/16 12:16:05;;;;;;;7.70;1.57;;;;;;;;;;5134946;27;20387;-78
2022/10/16 12:18:31;;;;;;;8.40;1.70;;;;;;;;;;5134847;27;20043;-79
2022/10/16 12:21:05;;;;;;;10.52;1.60;;;;;;;;;;5134852;27;20574;-78
2022/10/16 12:23:32;;;;;;;7.28;1.38;;;;;;;;;;5102521;27;20031;-75
2022/10/16 12:25:59;;;;;;;7.45;1.83;;;;;;;;;;5116165;27;20087;-68
2022/10/16 12:28:33;;;;;;;6.60;1.40;;;;;;;;;;5098921;27;20413;-67
2022/10/16 12:31:00;;;;;;;8.82;1.50;;;;;;;;;;5134821;27;20035;-78
2022/10/16 12:33:33;;;;;;;10.25;1.58;;;;;;;;;;5134267;27;20056;-78
2022/10/16 12:36:00;;;;;;;8.90;1.58;;;;;;;;;;5115894;27;20035;-77
2022/10/16 12:38:46;;;;;;;9.45;1.50;;;;;;;;;;5115520;27;20035;-78
2022/10/16 12:41:14;;;;;;;9.50;1.50;;;;;;;;;;5134362;27;20079;-77
2022/10/16 12:43:44;;;;;;;9.23;1.75;;;;;;;;;;5127418;27;20110;-78
2022/10/16 12:46:10;;;;;;;11.73;1.90;;;;;;;;;;5127219;27;20043;-78
2022/10/16 12:48:37;;;;;;;9.50;1.52;;;;;;;;;;5115577;27;20042;-77
2022/10/16 12:51:21;;;;;;;10.38;1.80;;;;;;;;;;5134066;27;20041;-77
2022/10/16 12:53:58;;;;;;;10.52;1.80;;;;;;;;;;5133301;27;20083;-77
2022/10/16 12:56:33;;;;;;;11.23;1.80;;;;;;;;;;5111868;28;20058;-77
2022/10/16 12:59:09;;;;;;;8.65;1.58;;;;;;;;;;5100239;28;20032;-78
2022/10/16 13:01:42;;;;;;;11.68;1.48;;;;;;;;;;5112236;28;20119;-76
2022/10/16 13:04:19;;;;;;;11.45;1.60;;;;;;;;;;5114164;28;20035;-77
2022/10/16 13:06:55;;;;;;;9.00;1.58;;;;;;;;;;5112532;28;20035;-77
2022/10/16 13:09:21;;;;;;;11.55;1.80;;;;;;;;;;5112579;28;20044;-78
2022/10/16 13:12:05;;;;;;;10.40;2.05;;;;;;;;;;5114592;28;20092;-77
2022/10/16 13:14:50;;;;;;;9.68;1.70;;;;;;;;;;5102219;28;20027;-77
2022/10/16 13:17:25;;;;;;;9.13;1.38;;;;;;;;;;5115465;28;20438;-77
2022/10/16 13:20:09;;;;;;;9.07;1.55;;;;;;;;;;5116377;28;20028;-77
2022/10/16 13:22:51;;;;;;;13.25;2.05;;;;;;;;;;5114638;28;20522;-77
2022/10/16 13:25:27;;;;;;;14.00;2.10;;;;;;;;;;5114225;28;20043;-77
2022/10/16 13:28:04;;;;;;;12.18;2.20;;;;;;;;;;5113558;28;20035;-78
2022/10/16 13:30:31;;;;;;;10.57;1.77;;;;;;;;;;5115040;28;20036;-66
2022/10/16 13:33:07;;;;;;;13.43;1.80;;;;;;;;;;5112732;28;20047;-66
2022/10/16 13:35:34;;;;;;;12.00;1.65;;;;;;;;;;5112543;28;20096;-66
2022/10/16 13:38:04;;;;;;;13.43;1.50;;;;;;;;;;5111466;28;20515;-67
2022/10/16 13:40:31;;;;;;;11.85;1.77;;;;;;;;;;5112608;28;20114;-77
2022/10/16 13:43:00;;;;;;;11.80;1.75;;;;;;;;;;5098487;28;20127;-76
2022/10/16 13:45:26;;;;;;;8.93;1.52;;;;;;;;;;5113057;28;20035;-77
2022/10/16 13:48:02;;;;;;;13.35;1.75;;;;;;;;;;5111462;28;20046;-77
2022/10/16 13:50:28;;;;;;;12.88;1.95;;;;;;;;;;5099014;28;20112;-77
2022/10/16 13:53:03;;;;;;;9.93;1.60;;;;;;;;;;5112902;28;20039;-77
2022/10/16 13:55:30;;;;;;;12.85;1.80;;;;;;;;;;5119506;28;20047;-78
2022/10/16 13:58:05;;;;;;;9.38;1.92;;;;;;;;;;5133661;28;20499;-77
2022/10/16 14:00:31;;;;;;;10.73;1.50;;;;;;;;;;5133356;28;20034;-78
2022/10/16 14:03:02;;;;;;;15.27;2.05;;;;;;;;;;5133278;28;20092;-77
2022/10/16 14:05:29;;;;;;;11.80;2.25;;;;;;;;;;5135540;27;20390;-77
2022/10/16 14:07:55;;;;;;;10.93;1.73;;;;;;;;;;5118949;27;20043;-66
2022/10/16 14:10:27;;;;;;;11.48;1.63;;;;;;;;;;5104219;27;20075;-66
2022/10/16 14:13:01;;;;;;;10.15;1.73;;;;;;;;;;5137438;27;20395;-77
2022/10/16 14:15:27;;;;;;;11.10;1.45;;;;;;;;;;5137140;27;20064;-77
2022/10/16 14:17:54;;;;;;;12.60;2.50;;;;;;;;;;5137440;27;20095;-77
2022/10/16 14:20:21;;;;;;;10.48;1.80;;;;;;;;;;5118946;27;20043;-76
2022/10/16 14:22:47;;;;;;;10.13;1.88;;;;;;;;;;5137130;27;20078;-66
2022/10/16 14:25:19;;;;;;;11.52;2.05;;;;;;;;;;5118760;27;20046;-66
2022/10/16 14:27:45;;;;;;;13.35;1.58;;;;;;;;;;5133309;27;20376;-66
2022/10/16 14:30:17;;;;;;;8.75;1.70;;;;;;;;;;5136969;27;20035;-67
2022/10/16 14:32:54;;;;;;;9.55;2.25;;;;;;;;;;5136388;27;20035;-66
2022/10/16 14:35:24;;;;;;;9.75;1.60;;;;;;;;;;5128439;27;20038;-66
2022/10/16 14:37:54;;;;;;;10.02;2.15;;;;;;;;;;5112191;27;20538;-67
2022/10/16 14:40:22;;;;;;;9.73;1.67;;;;;;;;;;5118163;27;20047;-67
2022/10/16 14:42:48;;;;;;;7.60;1.73;;;;;;;;;;5118089;27;20510;-67
2022/10/16 14:45:19;;;;;;;10.90;2.15;;;;;;;;;;5112668;28;20071;-67
2022/10/16 14:48:11;;;;;;;10.95;1.60;;;;;;;;;;5128050;27;20035;-67
2022/10/16 14:50:37;;;;;;;10.05;1.80;;;;;;;;;;5131448;27;20051;-67
2022/10/16 14:53:08;;;;;;;11.93;2.03;;;;;;;;;;5136292;27;20050;-67